createdAt,value
2019-05-23T00:03:43.873Z,84.50
2019-05-23T00:07:47.525Z,84.40
2019-05-23T00:11:56.432Z,84.50
2019-05-23T00:16:01.624Z,84.40
2019-05-23T00:20:06.637Z,84.80
2019-05-23T00:24:10.114Z,84.80
2019-05-23T00:28:14.507Z,84.60
2019-05-23T00:32:22.463Z,84.40
2019-05-23T00:36:27.662Z,84.00
2019-05-23T00:40:30.658Z,84.30
2019-05-23T00:44:34.484Z,84.50
2019-05-23T00:48:38.533Z,84.90
2019-05-23T00:52:42.059Z,84.80
2019-05-23T00:56:45.185Z,85.30
2019-05-23T01:00:50.235Z,86.10
2019-05-23T01:04:53.741Z,87.00
2019-05-23T01:08:58.659Z,86.10
2019-05-23T01:13:04.344Z,86.70
2019-05-23T01:17:08.444Z,87.20
2019-05-23T01:21:16.309Z,87.40
2019-05-23T01:25:20.506Z,87.50
2019-05-23T01:29:25.410Z,87.40
2019-05-23T01:33:31.119Z,86.30
2019-05-23T01:37:35.407Z,86.10
2019-05-23T01:41:39.485Z,85.20
2019-05-23T01:45:45.508Z,85.10
2019-05-23T01:49:48.730Z,86.40
2019-05-23T01:53:51.815Z,87.20
2019-05-23T01:57:55.107Z,87.50
2019-05-23T02:02:00.422Z,87.80
2019-05-23T02:06:04.020Z,88.00
2019-05-23T02:10:09.033Z,88.20
2019-05-23T02:14:12.267Z,88.30
2019-05-23T02:18:17.059Z,88.10
2019-05-23T02:22:20.826Z,87.70
2019-05-23T02:26:26.031Z,87.60
2019-05-23T02:30:34.599Z,87.40
2019-05-23T02:34:36.468Z,88.00
2019-05-23T02:38:53.813Z,87.70
2019-05-23T02:42:58.935Z,88.00
2019-05-23T02:47:12.988Z,88.30
2019-05-23T02:51:26.825Z,88.20
2019-05-23T02:55:34.554Z,87.70
2019-05-23T02:59:41.455Z,88.20
2019-05-23T03:03:46.578Z,88.40
2019-05-23T03:07:52.231Z,88.40
2019-05-23T03:11:56.225Z,89.10
2019-05-23T03:16:00.577Z,89.30
2019-05-23T03:20:05.212Z,88.90
2019-05-23T03:24:08.613Z,89.30
2019-05-23T03:28:14.822Z,88.90
2019-05-23T03:32:25.809Z,88.70
2019-05-23T03:36:30.824Z,88.90
2019-05-23T03:40:34.520Z,88.10
2019-05-23T03:44:38.334Z,87.60
2019-05-23T03:48:41.642Z,87.40
2019-05-23T03:52:45.378Z,88.70
2019-05-23T03:56:48.988Z,88.30
2019-05-23T04:00:56.586Z,87.20
2019-05-23T04:05:01.199Z,88.10
2019-05-23T04:09:06.970Z,88.40
2019-05-23T04:13:10.411Z,88.50
2019-05-23T04:17:14.316Z,88.10
2019-05-23T04:21:22.828Z,88.30
2019-05-23T04:25:26.039Z,87.60
2019-05-23T04:29:29.184Z,86.30
2019-05-23T04:33:32.795Z,85.20
2019-05-23T04:37:36.183Z,85.30
2019-05-23T04:41:39.320Z,84.60
2019-05-23T04:45:43.165Z,84.20
2019-05-23T04:49:46.913Z,84.20
2019-05-23T04:53:49.978Z,85.40
2019-05-23T04:57:54.372Z,84.90
2019-05-23T05:01:58.104Z,84.90
2019-05-23T05:06:03.614Z,85.30
2019-05-23T05:10:07.932Z,85.70
2019-05-23T05:14:11.248Z,85.10
2019-05-23T05:18:14.584Z,84.70
2019-05-23T05:22:18.795Z,83.90
2019-05-23T05:26:22.187Z,84.10
2019-05-23T05:30:26.373Z,83.30
2019-05-23T05:34:29.718Z,82.50
2019-05-23T05:38:33.152Z,81.40
2019-05-23T05:42:38.687Z,81.30
2019-05-23T05:46:42.080Z,81.30
2019-05-23T05:50:45.100Z,80.00
2019-05-23T05:54:49.908Z,80.00
2019-05-23T05:58:52.938Z,80.60
2019-05-23T06:03:04.295Z,79.80
2019-05-23T06:07:11.958Z,81.30
2019-05-23T06:11:17.070Z,81.60
2019-05-23T06:15:21.486Z,81.10
2019-05-23T06:19:24.684Z,80.60
2019-05-23T06:23:28.200Z,80.60
2019-05-23T06:27:33.199Z,79.60
2019-05-23T06:31:37.209Z,79.10
2019-05-23T06:35:40.303Z,79.00
2019-05-23T06:39:43.628Z,77.90
2019-05-23T06:43:47.240Z,77.90
2019-05-23T06:47:50.551Z,78.80
2019-05-23T06:51:53.548Z,77.50
2019-05-23T06:55:56.674Z,78.50
2019-05-23T07:00:00.133Z,79.00
2019-05-23T07:04:04.667Z,76.40
2019-05-23T07:08:08.048Z,77.50
2019-05-23T07:12:11.127Z,77.90
2019-05-23T07:16:14.164Z,75.20
2019-05-23T07:20:18.290Z,75.50
2019-05-23T07:24:21.601Z,72.00
2019-05-23T07:28:24.888Z,74.70
2019-05-23T07:32:28.038Z,72.30
2019-05-23T07:36:31.266Z,69.70
2019-05-23T07:40:35.685Z,69.10
2019-05-23T07:44:48.144Z,68.70
2019-05-23T07:48:45.186Z,67.80
2019-05-23T07:52:48.995Z,65.10
2019-05-23T07:56:52.463Z,64.80
2019-05-23T08:01:00.462Z,64.00
2019-05-23T08:05:06.054Z,57.50
2019-05-23T08:09:11.437Z,56.50
2019-05-23T08:13:14.433Z,53.50
2019-05-23T08:17:17.494Z,51.00
2019-05-23T08:21:20.603Z,50.20
2019-05-23T08:25:23.726Z,47.90
2019-05-23T08:29:28.248Z,45.50
2019-05-23T08:33:31.517Z,45.20
2019-05-23T08:37:36.216Z,42.80
2019-05-23T08:41:39.836Z,43.20
2019-05-23T08:45:42.840Z,40.60
2019-05-23T08:49:45.870Z,37.80
2019-05-23T08:53:48.876Z,38.60
2019-05-23T08:57:53.103Z,38.10
2019-05-23T09:01:56.273Z,39.50
2019-05-23T09:05:59.995Z,38.60
2019-05-23T09:10:06.518Z,35.40
2019-05-23T09:14:10.276Z,34.30
2019-05-23T09:18:13.387Z,32.90
2019-05-23T09:22:16.553Z,32.50
2019-05-23T09:26:19.743Z,32.10
2019-05-23T09:30:25.461Z,33.20
2019-05-23T09:34:29.070Z,33.50
2019-05-23T09:38:32.082Z,32.20
2019-05-23T09:42:35.193Z,32.60
2019-05-23T09:46:38.818Z,30.00
2019-05-23T09:50:42.397Z,30.30
2019-05-23T09:54:45.481Z,31.00
2019-05-23T09:58:48.572Z,29.60
2019-05-23T10:02:51.588Z,29.00
2019-05-23T10:06:54.680Z,28.60
2019-05-23T10:10:58.959Z,28.00
2019-05-23T10:15:08.183Z,27.30
2019-05-23T10:19:11.509Z,27.40
2019-05-23T10:23:14.705Z,27.00
2019-05-23T10:27:18.108Z,26.10
2019-05-23T10:31:21.196Z,26.60
2019-05-23T10:35:24.307Z,29.20
2019-05-23T10:39:27.559Z,28.90
2019-05-23T10:43:30.560Z,28.30
2019-05-23T10:47:33.669Z,26.90
2019-05-23T10:51:36.663Z,27.80
2019-05-23T10:55:39.763Z,26.90
2019-05-23T10:59:42.760Z,27.80
2019-05-23T11:03:45.761Z,29.60
2019-05-23T11:07:49.271Z,27.00
2019-05-23T11:11:53.219Z,28.60
2019-05-23T11:15:56.261Z,27.50
2019-05-23T11:19:59.352Z,26.90
2019-05-23T11:24:04.583Z,25.60
2019-05-23T11:28:08.261Z,27.00
2019-05-23T11:32:11.948Z,25.50
2019-05-23T11:36:31.780Z,25.90
2019-05-23T11:40:20.782Z,25.10
2019-05-23T11:44:23.802Z,26.20
2019-05-23T11:48:27.106Z,27.20
2019-05-23T11:52:30.313Z,27.00
2019-05-23T11:56:35.237Z,27.90
2019-05-23T12:01:04.923Z,32.60
2019-05-23T12:05:17.453Z,31.20
2019-05-23T12:09:21.877Z,29.10
2019-05-23T12:13:26.395Z,29.90
2019-05-23T12:17:31.616Z,30.60
2019-05-23T12:21:34.717Z,32.40
2019-05-23T12:25:38.129Z,33.30
2019-05-23T12:29:42.111Z,33.10
2019-05-23T12:33:45.224Z,32.60
2019-05-23T12:37:48.221Z,35.20
2019-05-23T12:41:51.297Z,33.50
2019-05-23T12:45:54.473Z,35.10
2019-05-23T12:49:59.464Z,34.10
2019-05-23T12:54:03.203Z,33.60
2019-05-23T12:58:06.218Z,33.80
2019-05-23T13:02:11.319Z,30.80
2019-05-23T13:06:14.731Z,32.10
2019-05-23T13:10:23.735Z,32.60
2019-05-23T13:14:23.672Z,31.60
2019-05-23T13:18:26.737Z,31.60
2019-05-23T13:22:30.058Z,31.90
2019-05-23T13:26:33.272Z,33.40
2019-05-23T13:30:36.297Z,34.20
2019-05-23T13:34:39.401Z,33.50
2019-05-23T13:38:42.866Z,34.20
2019-05-23T13:42:46.093Z,36.90
2019-05-23T13:46:49.409Z,36.80
2019-05-23T13:50:52.614Z,34.80
2019-05-23T13:54:55.729Z,35.90
2019-05-23T13:58:58.937Z,37.20
2019-05-23T14:03:02.461Z,36.10
2019-05-23T14:07:07.688Z,36.00
2019-05-23T14:11:11.044Z,37.50
2019-05-23T14:15:16.733Z,39.60
2019-05-23T14:19:20.116Z,40.00
2019-05-23T14:23:25.211Z,37.50
2019-05-23T14:27:35.667Z,37.70
2019-05-23T14:31:40.603Z,40.60
2019-05-23T14:35:47.415Z,39.50
2019-05-23T14:39:52.372Z,41.00
2019-05-23T14:43:55.513Z,40.10
2019-05-23T14:48:03.225Z,39.10
2019-05-23T14:52:08.452Z,39.30
2019-05-23T14:56:12.083Z,39.90
2019-05-23T15:00:17.991Z,40.30
2019-05-23T15:04:21.099Z,41.40
2019-05-23T15:08:24.503Z,43.90
2019-05-23T15:12:27.899Z,41.70
2019-05-23T15:16:33.324Z,42.40
2019-05-23T15:20:36.432Z,43.00
2019-05-23T15:24:39.479Z,40.30
2019-05-23T15:28:42.557Z,39.30
2019-05-23T15:32:45.960Z,39.20
2019-05-23T15:36:49.064Z,41.80
2019-05-23T15:40:52.391Z,42.30
2019-05-23T15:44:55.426Z,38.30
2019-05-23T15:48:59.404Z,38.30
2019-05-23T15:53:05.194Z,39.20
2019-05-23T15:57:20.302Z,38.90
2019-05-23T16:01:25.983Z,38.70
2019-05-23T16:05:29.200Z,39.50
2019-05-23T16:09:32.315Z,41.00
2019-05-23T16:13:35.520Z,39.60
2019-05-23T16:17:38.886Z,38.60
2019-05-23T16:21:42.003Z,41.40
2019-05-23T16:25:45.029Z,40.10
2019-05-23T16:29:49.115Z,40.30
2019-05-23T16:33:52.259Z,41.40
2019-05-23T16:37:55.490Z,40.80
2019-05-23T16:41:58.920Z,40.90
2019-05-23T16:46:02.029Z,41.70
2019-05-23T16:50:05.752Z,42.00
2019-05-23T16:54:09.532Z,42.10
2019-05-23T16:58:23.637Z,41.00
2019-05-23T17:02:28.727Z,40.70
2019-05-23T17:06:50.394Z,40.90
2019-05-23T17:10:55.303Z,42.90
2019-05-23T17:15:00.323Z,45.40
2019-05-23T17:19:11.916Z,44.80
2019-05-23T17:23:33.224Z,42.30
2019-05-23T17:27:46.977Z,41.50
2019-05-23T17:31:51.890Z,42.80
2019-05-23T17:35:55.067Z,42.40
2019-05-23T17:39:58.386Z,43.20
2019-05-23T17:44:01.531Z,42.50
2019-05-23T17:48:04.739Z,44.30
2019-05-23T17:52:08.193Z,46.20
2019-05-23T17:56:11.713Z,44.90
2019-05-23T18:00:17.015Z,46.50
2019-05-23T18:04:20.762Z,46.10
2019-05-23T18:08:23.923Z,44.80
2019-05-23T18:12:27.198Z,45.10
2019-05-23T18:16:30.483Z,45.10
2019-05-23T18:20:34.932Z,46.30
2019-05-23T18:24:38.041Z,47.10
2019-05-23T18:28:41.320Z,47.60
2019-05-23T18:32:46.635Z,50.30
2019-05-23T18:36:49.812Z,52.40
2019-05-23T18:41:02.312Z,55.20
2019-05-23T18:44:57.827Z,55.70
2019-05-23T18:49:02.758Z,57.90
2019-05-23T18:53:06.992Z,59.30
2019-05-23T18:57:11.016Z,60.10
2019-05-23T19:01:16.983Z,63.50
2019-05-23T19:05:21.293Z,65.70
2019-05-23T19:09:25.615Z,67.10
2019-05-23T19:13:28.628Z,67.40
2019-05-23T19:17:33.674Z,66.90
2019-05-23T19:21:41.619Z,68.00
2019-05-23T19:25:45.496Z,67.80
2019-05-23T19:29:49.607Z,68.10
2019-05-23T19:33:52.616Z,67.60
2019-05-23T19:37:56.321Z,68.60
2019-05-23T19:41:59.557Z,69.60
2019-05-23T19:46:03.055Z,68.50
2019-05-23T19:50:06.457Z,69.00
2019-05-23T19:54:09.773Z,70.50
2019-05-23T19:58:12.789Z,71.70
2019-05-23T20:02:24.112Z,71.00
2019-05-23T20:06:28.882Z,72.00
2019-05-23T20:10:33.194Z,72.60
2019-05-23T20:14:36.408Z,74.10
2019-05-23T20:18:39.424Z,75.10
2019-05-23T20:22:43.416Z,75.00
2019-05-23T20:26:46.691Z,75.50
2019-05-23T20:30:50.810Z,75.20
2019-05-23T20:34:53.947Z,74.80
2019-05-23T20:38:56.976Z,75.80
2019-05-23T20:43:02.562Z,77.10
2019-05-23T20:47:05.424Z,77.40
2019-05-23T20:51:08.591Z,77.20
2019-05-23T20:55:11.772Z,77.70
2019-05-23T20:59:15.147Z,77.70
2019-05-23T21:03:19.880Z,78.30
2019-05-23T21:07:22.942Z,78.20
2019-05-23T21:11:26.183Z,77.40
2019-05-23T21:15:29.209Z,77.60
2019-05-23T21:19:32.229Z,77.10
2019-05-23T21:23:35.753Z,77.20
2019-05-23T21:27:39.094Z,77.50
2019-05-23T21:31:42.372Z,78.00
2019-05-23T21:35:45.383Z,78.50
2019-05-23T21:39:48.408Z,78.00
2019-05-23T21:43:53.403Z,78.80
2019-05-23T21:47:56.407Z,78.80
2019-05-23T21:51:59.433Z,79.40
2019-05-23T21:56:02.732Z,79.30
2019-05-23T22:00:06.937Z,79.60
2019-05-23T22:04:12.568Z,79.50
2019-05-23T22:08:15.700Z,79.50
2019-05-23T22:12:18.740Z,79.40
2019-05-23T22:16:22.442Z,79.30
2019-05-23T22:20:25.471Z,79.40
2019-05-23T22:24:29.205Z,80.10
2019-05-23T22:28:32.209Z,81.00
2019-05-23T22:32:35.423Z,81.00
2019-05-23T22:36:38.559Z,80.50
2019-05-23T22:40:41.765Z,80.90
2019-05-23T22:44:44.776Z,80.60
2019-05-23T22:48:47.864Z,80.00
2019-05-23T22:52:50.872Z,80.20
2019-05-23T22:56:54.186Z,79.40
2019-05-23T23:00:57.194Z,77.90
2019-05-23T23:05:00.286Z,78.50
2019-05-23T23:09:05.283Z,78.80
2019-05-23T23:13:08.284Z,79.60
2019-05-23T23:17:11.288Z,79.90
2019-05-23T23:21:14.302Z,80.50
2019-05-23T23:25:18.270Z,80.60
2019-05-23T23:29:21.475Z,80.50
2019-05-23T23:33:24.640Z,80.40
2019-05-23T23:37:27.852Z,80.30
2019-05-23T23:41:31.170Z,80.60
2019-05-23T23:45:52.875Z,80.70
2019-05-23T23:50:14.532Z,80.40
2019-05-23T23:54:36.144Z,80.80
2019-05-23T23:58:39.048Z,81.50
